createdAt,value
2023-05-05T00:00:13.382Z,98903.66
2023-05-05T00:02:40.980Z,98906.72
2023-05-05T00:05:26.997Z,98904.34
2023-05-05T00:08:14.881Z,98898.88
2023-05-05T00:11:07.658Z,98908.47
2023-05-05T00:13:46.820Z,98906.22
2023-05-05T00:16:36.748Z,98908.28
2023-05-05T00:19:03.845Z,98879.88
2023-05-05T00:21:31.300Z,98888.28
2023-05-05T00:23:58.185Z,98894.50
2023-05-05T00:26:25.118Z,98894.19
2023-05-05T00:28:52.551Z,98890.16
2023-05-05T00:31:19.518Z,98885.16
2023-05-05T00:33:46.391Z,98865.38
2023-05-05T00:36:14.950Z,98885.84
2023-05-05T00:38:41.895Z,98807.53
2023-05-05T00:41:08.860Z,98871.22
2023-05-05T00:43:36.330Z,98862.84
2023-05-05T00:46:22.635Z,98864.69
2023-05-05T00:48:49.621Z,98861.72
2023-05-05T00:51:17.569Z,98854.28
2023-05-05T00:53:45.523Z,98863.69
2023-05-05T00:56:17.519Z,98806.31
2023-05-05T00:58:44.924Z,98856.13
2023-05-05T01:01:12.549Z,98865.22
2023-05-05T01:03:41.750Z,98866.78
2023-05-05T01:06:42.185Z,98868.94
2023-05-05T01:10:18.946Z,98875.56
2023-05-05T01:13:24.361Z,98878.78
2023-05-05T01:16:27.931Z,98880.97
2023-05-05T01:18:58.892Z,98879.28
2023-05-05T01:21:28.641Z,98879.59
2023-05-05T01:24:32.219Z,98880.47
2023-05-05T01:27:31.971Z,98873.81
2023-05-05T01:30:17.614Z,98863.91
2023-05-05T01:32:51.286Z,98869.81
2023-05-05T01:35:25.720Z,98863.59
2023-05-05T01:37:59.182Z,98867.28
2023-05-05T01:40:31.436Z,98864.97
2023-05-05T01:43:01.398Z,98846.47
2023-05-05T01:45:32.461Z,98857.72
2023-05-05T01:48:01.162Z,98860.91
2023-05-05T01:50:29.331Z,98861.91
2023-05-05T01:52:57.959Z,98856.88
2023-05-05T01:55:28.091Z,98855.88
2023-05-05T01:57:58.864Z,98857.91
2023-05-05T02:00:27.601Z,98859.22
2023-05-05T02:03:00.172Z,98860.22
2023-05-05T02:05:28.338Z,98852.19
2023-05-05T02:07:58.534Z,98855.38
2023-05-05T02:10:26.510Z,98842.63
2023-05-05T02:12:54.222Z,98833.72
2023-05-05T02:15:23.980Z,98857.06
2023-05-05T02:17:55.012Z,98837.59
2023-05-05T02:20:24.658Z,98850.00
2023-05-05T02:22:51.578Z,98847.50
2023-05-05T02:25:18.706Z,98825.69
2023-05-05T02:27:48.361Z,98849.16
2023-05-05T02:30:20.091Z,98852.88
2023-05-05T02:33:06.428Z,98841.94
2023-05-05T02:35:43.759Z,98848.84
2023-05-05T02:38:17.496Z,98847.81
2023-05-05T02:40:47.917Z,98846.31
2023-05-05T02:43:19.843Z,98837.72
2023-05-05T02:45:47.048Z,98837.72
2023-05-05T02:48:14.035Z,98839.25
2023-05-05T02:50:40.981Z,98841.25
2023-05-05T02:53:08.286Z,98818.78
2023-05-05T02:55:52.212Z,98841.59
2023-05-05T02:58:32.042Z,98840.09
2023-05-05T03:01:27.007Z,98840.78
2023-05-05T03:04:16.660Z,98837.59
2023-05-05T03:06:49.307Z,98839.25
2023-05-05T03:09:29.486Z,98839.44
2023-05-05T03:12:04.275Z,98837.91
2023-05-05T03:14:37.279Z,98838.75
2023-05-05T03:17:05.770Z,98840.44
2023-05-05T03:19:34.738Z,98837.06
2023-05-05T03:22:05.125Z,98837.91
2023-05-05T03:24:32.069Z,98838.91
2023-05-05T03:26:59.045Z,98838.75
2023-05-05T03:29:26.154Z,98848.50
2023-05-05T03:31:53.093Z,98848.84
2023-05-05T03:34:19.989Z,98852.72
2023-05-05T03:36:46.942Z,98850.19
2023-05-05T03:39:13.812Z,98852.00
2023-05-05T03:41:40.721Z,98854.19
2023-05-05T03:44:07.622Z,98856.38
2023-05-05T03:46:34.562Z,98858.19
2023-05-05T03:49:01.429Z,98860.88
2023-05-05T03:51:28.427Z,98852.63
2023-05-05T03:53:55.391Z,98862.22
2023-05-05T03:56:22.410Z,98852.16
2023-05-05T03:58:49.294Z,98855.00
2023-05-05T04:01:16.222Z,98857.16
2023-05-05T04:03:43.226Z,98853.84
2023-05-05T04:06:10.239Z,98841.75
2023-05-05T04:08:37.120Z,98854.81
2023-05-05T04:11:04.094Z,98850.75
2023-05-05T04:13:31.329Z,98858.25
2023-05-05T04:15:59.961Z,98853.16
2023-05-05T04:18:26.982Z,98859.31
2023-05-05T04:20:53.949Z,98862.63
2023-05-05T04:23:20.901Z,98856.56
2023-05-05T04:25:48.309Z,98858.19
2023-05-05T04:28:15.208Z,98861.13
2023-05-05T04:30:42.206Z,98873.81
2023-05-05T04:33:09.091Z,98865.78
2023-05-05T04:35:36.226Z,98877.50
2023-05-05T04:38:03.107Z,98872.81
2023-05-05T04:40:30.138Z,98878.47
2023-05-05T04:42:57.043Z,98880.31
2023-05-05T04:45:23.975Z,98879.50
2023-05-05T04:47:50.922Z,98880.22
2023-05-05T04:50:17.997Z,98879.97
2023-05-05T04:52:44.908Z,98881.97
2023-05-05T04:55:11.901Z,98856.81
2023-05-05T04:57:38.975Z,98887.00
2023-05-05T05:00:06.857Z,98890.69
2023-05-05T05:02:34.026Z,98876.16
2023-05-05T05:05:00.974Z,98888.03
2023-05-05T05:07:27.902Z,98889.31
2023-05-05T05:09:54.790Z,98891.78
2023-05-05T05:12:21.754Z,98896.09
2023-05-05T05:14:48.753Z,98897.38
2023-05-05T05:17:15.961Z,98895.44
2023-05-05T05:19:42.904Z,98902.38
2023-05-05T05:22:09.818Z,98903.16
2023-05-05T05:24:36.793Z,98896.94
2023-05-05T05:27:03.829Z,98896.97
2023-05-05T05:29:31.091Z,98908.84
2023-05-05T05:31:58.011Z,98906.56
2023-05-05T05:34:25.037Z,98908.47
2023-05-05T05:36:51.904Z,98901.13
2023-05-05T05:39:18.846Z,98892.81
2023-05-05T05:41:45.764Z,98895.22
2023-05-05T05:44:12.656Z,98898.13
2023-05-05T05:46:39.624Z,98906.28
2023-05-05T05:49:06.573Z,98901.66
2023-05-05T05:51:33.507Z,98906.09
2023-05-05T05:54:00.464Z,98906.06
2023-05-05T05:56:27.382Z,98909.44
2023-05-05T05:58:54.344Z,98914.84
2023-05-05T06:01:21.320Z,98921.09
2023-05-05T06:03:48.289Z,98913.00
2023-05-05T06:06:15.311Z,98921.41
2023-05-05T06:08:42.281Z,98915.47
2023-05-05T06:11:09.189Z,98916.41
2023-05-05T06:13:36.169Z,98878.31
2023-05-05T06:16:03.108Z,98915.06
2023-05-05T06:18:30.057Z,98909.69
2023-05-05T06:20:57.489Z,98912.50
2023-05-05T06:23:24.378Z,98908.72
2023-05-05T06:25:51.289Z,98910.75
2023-05-05T06:28:18.913Z,98910.44
2023-05-05T06:30:45.969Z,98909.59
2023-05-05T06:33:12.861Z,98904.13
2023-05-05T06:35:39.807Z,98906.19
2023-05-05T06:38:06.804Z,98900.97
2023-05-05T06:40:33.806Z,98904.59
2023-05-05T06:43:00.680Z,98907.19
2023-05-05T06:45:27.953Z,98900.97
2023-05-05T06:47:54.888Z,98908.13
2023-05-05T06:50:22.243Z,98896.44
2023-05-05T06:52:49.142Z,98888.75
2023-05-05T06:55:16.107Z,98892.38
2023-05-05T06:57:43.021Z,98899.19
2023-05-05T07:00:11.639Z,98896.09
2023-05-05T07:02:39.090Z,98893.97
2023-05-05T07:05:06.339Z,98891.75
2023-05-05T07:07:33.302Z,98892.03
2023-05-05T07:10:00.373Z,98897.50
2023-05-05T07:12:30.778Z,98897.38
2023-05-05T07:14:58.039Z,98902.22
2023-05-05T07:17:25.271Z,98891.69
2023-05-05T07:19:52.209Z,98888.84
2023-05-05T07:22:19.081Z,98889.09
2023-05-05T07:24:46.101Z,98878.16
2023-05-05T07:27:13.119Z,98877.91
2023-05-05T07:29:40.057Z,98873.84
2023-05-05T07:32:07.018Z,98886.22
2023-05-05T07:34:34.790Z,98883.47
2023-05-05T07:37:02.063Z,98871.28
2023-05-05T07:39:29.031Z,98878.22
2023-05-05T07:41:55.949Z,98864.72
2023-05-05T07:44:23.332Z,98873.31
2023-05-05T07:46:50.236Z,98886.16
2023-05-05T07:49:17.233Z,98881.88
2023-05-05T07:51:45.096Z,98878.94
2023-05-05T07:54:12.751Z,98877.38
2023-05-05T07:56:39.681Z,98876.16
2023-05-05T07:59:06.691Z,98876.81
2023-05-05T08:01:33.670Z,98873.03
2023-05-05T08:04:00.639Z,98877.03
2023-05-05T08:06:29.404Z,98877.03
2023-05-05T08:08:56.366Z,98871.56
2023-05-05T08:11:23.387Z,98874.44
2023-05-05T08:13:50.302Z,98872.16
2023-05-05T08:16:17.317Z,98870.53
2023-05-05T08:18:44.873Z,98873.56
2023-05-05T08:21:12.323Z,98868.06
2023-05-05T08:23:40.072Z,98871.72
2023-05-05T08:26:07.542Z,98868.72
2023-05-05T08:28:37.643Z,98874.13
2023-05-05T08:31:05.899Z,98868.72
2023-05-05T08:33:33.263Z,98877.34
2023-05-05T08:36:00.200Z,98878.22
2023-05-05T08:38:27.485Z,98864.78
2023-05-05T08:40:54.411Z,98872.91
2023-05-05T08:43:24.201Z,98868.00
2023-05-05T08:45:51.996Z,98871.66
2023-05-05T08:48:23.054Z,98871.97
2023-05-05T08:50:59.842Z,98869.53
2023-05-05T08:53:57.751Z,98867.31
2023-05-05T08:56:27.884Z,98867.72
2023-05-05T08:58:56.653Z,98857.69
2023-05-05T09:01:24.063Z,98862.97
2023-05-05T09:03:52.777Z,98857.06
2023-05-05T09:06:23.704Z,98864.91
2023-05-05T09:08:51.265Z,98866.53
2023-05-05T09:11:18.203Z,98860.16
2023-05-05T09:16:29.604Z,98847.31
2023-05-05T09:19:04.126Z,98855.34
2023-05-05T09:21:31.209Z,98851.91
2023-05-05T09:24:12.277Z,98844.06
2023-05-05T09:26:42.096Z,98856.00
2023-05-05T09:29:09.097Z,98856.44
2023-05-05T09:31:37.931Z,98862.56
2023-05-05T09:34:15.781Z,98852.22
2023-05-05T09:36:43.427Z,98853.91
2023-05-05T09:39:10.824Z,98853.91
2023-05-05T09:41:39.293Z,98864.38
2023-05-05T09:44:06.501Z,98860.50
2023-05-05T09:46:33.765Z,98856.88
2023-05-05T09:49:18.563Z,98854.06
2023-05-05T09:51:46.217Z,98850.63
2023-05-05T09:54:23.299Z,98851.22
2023-05-05T09:56:51.731Z,98856.56
2023-05-05T09:59:19.890Z,98853.47
2023-05-05T10:01:47.291Z,98858.09
2023-05-05T10:04:31.025Z,98852.97
2023-05-05T10:06:58.977Z,98846.97
2023-05-05T10:09:27.302Z,98850.97
2023-05-05T10:11:58.115Z,98843.44
2023-05-05T10:14:26.062Z,98806.56
2023-05-05T10:16:55.056Z,98848.09
2023-05-05T10:19:24.245Z,98833.59
2023-05-05T10:21:53.785Z,98855.84
2023-05-05T10:24:30.838Z,98852.00
2023-05-05T10:27:00.221Z,98841.47
2023-05-05T10:29:35.578Z,98858.50
2023-05-05T10:32:49.699Z,98847.97
2023-05-05T10:35:07.916Z,98842.69
2023-05-05T10:37:37.976Z,98838.13
2023-05-05T10:40:06.266Z,98843.75
2023-05-05T10:42:33.700Z,98837.03
2023-05-05T10:45:00.678Z,98812.63
2023-05-05T10:47:29.171Z,98837.94
2023-05-05T10:50:16.661Z,98829.84
2023-05-05T10:52:55.941Z,98832.09
2023-05-05T10:55:33.741Z,98814.50
2023-05-05T10:58:00.966Z,98834.41
2023-05-05T11:00:40.058Z,98828.16
